Tawas City, MI

8:34 PM EDT on October 31, 2014 (GMT -0400)
Tawas Bay Weather | Change Station
CLOSE
Current Station
Personal Weather Station
Location: East Tawas, MI
Elevation: 590 ft
Nearby Weather Stations

Elev 590 ft 44.28 °N, 83.48 °W | Updated 3 seconds ago

Overcast
Overcast
32.8 °F
Feels Like 33 °F
N
1.0
Wind Variable Wind from NNW
Gusts 11.0 mph

Today
High -- | Low -- °F
--% Chance of Precip.
Yesterday
High -- | Low -- °F
Precip. -- in
8:09 AM 6:25 PM
First Quarter, 60% visible
Pressure 30.21 in
Visibility 10.0 miles
Clouds Overcast 2800 ft
Windchill 33 °F
Dew Point 30 °F
Humidity 91%
Rainfall 0.25 in
Snow Depth Not available.
UV 0 out of 12
Pollen .10 out of 12
Air Quality Not available.
Flu Activity Not available.
METAR KOSC 010014Z AUTO 36016G28KT 10SM OVC028 00/M02 A3021 RMK AO2 T00051021

More Conditions Fewer Conditions

Pressure 30.21 in
Visibility 10.0 miles
Clouds Overcast 2800 ft
Windchill 33 °F
Dew Point 30 °F
Humidity 91%
Rainfall 0.25 in
Snow Depth Not available.
UV 0 out of 12
Pollen .10 out of 12
Air Quality Not available.
Flu Activity Not available.
METAR KOSC 010014Z AUTO 36016G28KT 10SM OVC028 00/M02 A3021 RMK AO2 T00051021

More Conditions Fewer Conditions

Nowcast | as of 8:00 PM EDT on October 31, 2014

At 9 PM...snow showers likely. Temperature 33. North winds 21 mph. At 11 PM...mostly cloudy. Chance of snow showers. Temperature 32. North winds 20 mph. At 1 am...mostly cloudy. Chance of snow showers. Temperature 32. North winds 19 mph with gusts to 30 mph. At 3 am...mostly cloudy. Temperature 32. North winds 18 mph.

×

10-Day Weather Forecast

Almanac

Astronomy

Oct. 31, 2014 Rise Set
Actual Time
Civil Twilight
Nautical Twilight
Astronomical Twilight
Moon
Length of Visible Light
Length of Day
Tomorrow will be .
, % of the Moon is Illuminated

Today's Extremes

State Highs State Lows

Community

WunderPhotos

Upload Photos

1,766,794 photos uploaded!

WunderBlogs® & News

Nearby

Air Quality

  Air Quality AQ Index Pollutant
Not available.

Snow Depth

Station Depth Elevation

Earthquake Activity

City Distance Mag. Time & Date
Minimum magnitude displayed is 2.5.

Coastal Water Temperatures

Place Temperature

Nearby Weather Stations